asociacionpopular.com.do alexa rank chart, asociacionpopular.com.do alexa rank daily changes

asociacionpopular.com.do alexa rank chart, asociacionpopular.com.do alexa rank daily changes

asociacionpopular.com.do
Actual rank:
335 239

RANK HISTORY

Date Rank Diff
2018/04/21 335 239 -141 805
2018/04/20 477 044 +175 063
2018/04/19 301 981 +65 312
2018/04/18 236 669 -444 181
2018/04/17 680 850 +453 125
2018/04/16 227 725 +25 836
2018/04/15 201 889 -12 401
2018/04/14 214 290 +5 882
2018/04/13 208 408 +332
2018/04/12 208 076 -9 232
2018/04/11 217 308 -255 630
2018/04/09 472 938 +260 995
2018/04/08 211 943 -7 626
2018/04/07 219 569 -4 452
2018/04/06 224 021 -43 733
2018/04/05 267 754 +78 821
2018/04/04 188 933 -747 671
2018/04/03 936 604 +572 573
2018/04/02 364 031 +102 848
2018/04/01 261 183 -49 874
2018/03/31 311 057 +109 210
2018/03/30 201 847 -15 988
2018/03/29 217 835 +682
2018/03/28 217 153 -77 300
2018/03/26 294 453 +48 516
2018/03/25 245 937 -132 990
2018/03/24 378 927 +47 975
2018/03/23 330 952 +66 580
2018/03/22 264 372 -65 667
2018/03/21 330 039 +26 322
2018/03/20 303 717 +89 922
2018/03/18 213 795 -27 836
2018/03/17 241 631 -54 341
2018/03/16 295 972 +35 499
2018/03/15 260 473 +21 993
2018/03/14 238 480 -96 368
2018/03/13 334 848 -38 906
2018/03/12 373 754 +115 721
2018/03/11 258 033 -8 151
2018/03/10 266 184 -643 884
2018/03/09 910 068 +599 905
2018/03/08 310 163 +69 324
2018/03/07 240 839 -14 305
2018/03/06 255 144 -229 965
2018/03/05 485 109 +270 200
2018/03/04 214 909 -15 489
2018/03/03 230 398 +72 533
2018/03/02 157 865 -359 614
2018/03/01 517 479 +294 483
2018/02/28 222 996 -114 105
2018/02/27 337 101 +76 566
2018/02/26 260 535 -19 075
2018/02/25 279 610 +38 109
2018/02/24 241 501 -139 166
2018/02/23 380 667 -1 458
2018/02/22 382 125 +150 175
2018/02/21 231 950 -53 341
2018/02/20 285 291

WIDGET FOR YOUR SITE

DOMAINS WITH THE NEAREST RANK

Domain Rank
dadcrush.com 335 234
sd-steam.info 335 235
posobie.guru 335 236
cincinnatitemple.com 335 237
segmentationstudyguide.com 335 238
asociacionpopular.com.do 335 239
tss.gov.do 335 240
targetpostgrad.com 335 241
theshabbycreekcottage.com 335 242
scaleofuniverse.com 335 243
madewithcode.com 335 244

DOMAINS WITH THE NEAREST RANK BY TLD .com.do

Domain Rank
lainformacion.com.do 334 496
asociacionpopular.com.do 335 239
telenord.com.do 336 745